Admire, Kansas
Current Conditions -  °F | °C
As of 7:53 AM on Thursday 29 Jan 2015 (Local Time) from KEMP Reporting Station
Overcast Overcast  
Wind Chill: 30°   Ceiling: 2800
Heat Index: 39°   Visibility: 10mi
Dew Point: 28°   Wind: 18mph
Humidity: 65%   Direction: 350°N
Pressure: 30.28"   Gusts: 33mph
Location:  38.64°N, 96.1°W
Report Text: KEMP 291353Z AUTO 35016G29KT 10SM OVC028 04/M02 A3028 RMK AO2 PK WND 34031/1309 SLP259 T00391022
Loading
Personal Weather Stations






























Interactive Weather Map New forecast layout! Learn more

10-Day Weather Forecast

Advertisements
Track Severe Weather on mobile